White Water, California
Current Conditions -  °F | °C
As of 10:53 AM on Friday 31 Oct 2014 (Local Time) from KPSP Reporting Station
Clear Clear  
Wind Chill: 76°   Ceiling: Unl
Heat Index: 76°   Visibility: NA
Dew Point: 48°   Wind: 3mph
Humidity: 37%   Direction: NA
Pressure: 29.88"   Gusts: NA
Location:  33.92°N, 116.64°W
Report Text: KPSP 311753Z VRB03KT CLR 24/09 A2988 RMK AO2 SLP116 T02440089 10244 20144 58002
Loading
Personal Weather Stations






























Interactive Weather Map
Tropical Storm Tracking
New forecast layout! Learn more

10-Day Weather Forecast

Advertisements
Track Severe Weather on mobile